NOZ1972 ENBR-EKCH
Flight info
| Callsign | NOZ1972 |
|---|---|
| Flight time | 1h 18m |
| Altitude | 35000 |
| Route | TUXIL DCT ZOL DCT TESPI |
| Aircraft | B738/M-SDE2E3FGHIRWXY/LB1 |
Departure
| Time | 2026-04-22 15:11 |
|---|---|
| Airport | Bergen Airport, Flesland (ENBR) |
Arrival
| Time | 2026-04-22 16:29 |
|---|---|
| Airport | Copenhagen Kastrup Airport (EKCH) |
| Time | Latitude | Longitude | Altitude | Speed | Heading |
|---|---|---|---|---|---|
| 2026-04-22 14:25 | 60.28984 | 5.22650 | 174 ft | 0 kts | 156° |
| 2026-04-22 14:33 | 60.28984 | 5.22649 | 174 ft | 0 kts | 156° |
| 2026-04-22 14:36 | 60.28985 | 5.22649 | 174 ft | 0 kts | 156° |
| 2026-04-22 15:05 | 60.29000 | 5.22636 | 174 ft | 4 kts | 155° |
| 2026-04-22 15:06 | 60.29016 | 5.22621 | 174 ft | 4 kts | 160° |
| 2026-04-22 15:06 | 60.29043 | 5.22617 | 175 ft | 3 kts | 243° |
| 2026-04-22 15:06 | 60.29044 | 5.22622 | 175 ft | 2 kts | 246° |
| 2026-04-22 15:08 | 60.29040 | 5.22588 | 175 ft | 7 kts | 262° |
| 2026-04-22 15:08 | 60.29032 | 5.22470 | 175 ft | 9 kts | 261° |
| 2026-04-22 15:08 | 60.28994 | 5.22383 | 175 ft | 9 kts | 185° |
| 2026-04-22 15:09 | 60.28930 | 5.22324 | 172 ft | 13 kts | 227° |
| 2026-04-22 15:09 | 60.28832 | 5.22311 | 170 ft | 15 kts | 171° |
| 2026-04-22 15:09 | 60.28731 | 5.22342 | 168 ft | 14 kts | 171° |
| 2026-04-22 15:09 | 60.28667 | 5.22228 | 162 ft | 16 kts | 261° |
| 2026-04-22 15:10 | 60.28657 | 5.22088 | 160 ft | 6 kts | 263° |
| 2026-04-22 15:10 | 60.28675 | 5.22038 | 160 ft | 0 kts | 349° |
| 2026-04-22 15:10 | 60.28781 | 5.21996 | 162 ft | 54 kts | 349° |
| 2026-04-22 15:11 | 60.29459 | 5.21772 | 152 ft | 141 kts | 352° |
| 2026-04-22 15:11 | 60.30474 | 5.21506 | 1049 ft | 142 kts | 350° |
| 2026-04-22 15:11 | 60.31440 | 5.21221 | 2214 ft | 152 kts | 351° |
| 2026-04-22 15:11 | 60.32496 | 5.20876 | 3122 ft | 157 kts | 351° |
| 2026-04-22 15:12 | 60.33666 | 5.20488 | 3484 ft | 188 kts | 351° |
| 2026-04-22 15:12 | 60.34563 | 5.20188 | 3655 ft | 206 kts | 351° |
| 2026-04-22 15:12 | 60.36581 | 5.19502 | 3984 ft | 239 kts | 351° |
| 2026-04-22 15:12 | 60.37695 | 5.19121 | 4371 ft | 247 kts | 350° |
| 2026-04-22 15:13 | 60.39386 | 5.18535 | 5372 ft | 245 kts | 350° |
| 2026-04-22 15:13 | 60.41076 | 5.17948 | 6294 ft | 249 kts | 350° |
| 2026-04-22 15:13 | 60.42802 | 5.17347 | 7103 ft | 254 kts | 350° |
| 2026-04-22 15:13 | 60.44557 | 5.16731 | 7923 ft | 258 kts | 349° |
| 2026-04-22 15:14 | 60.46313 | 5.15905 | 8778 ft | 261 kts | 336° |
| 2026-04-22 15:14 | 60.47743 | 5.13652 | 9588 ft | 267 kts | 307° |
| 2026-04-22 15:14 | 60.48521 | 5.10221 | 10472 ft | 272 kts | 286° |
| 2026-04-22 15:14 | 60.48606 | 5.06335 | 11167 ft | 283 kts | 265° |
| 2026-04-22 15:15 | 60.48085 | 5.02438 | 11877 ft | 293 kts | 246° |
| 2026-04-22 15:15 | 60.46762 | 4.99321 | 12598 ft | 303 kts | 217° |
| 2026-04-22 15:15 | 60.44770 | 4.97578 | 12949 ft | 329 kts | 191° |
| 2026-04-22 15:15 | 60.42405 | 4.97697 | 13172 ft | 353 kts | 174° |
| 2026-04-22 15:16 | 60.39883 | 4.98321 | 13329 ft | 375 kts | 174° |
| 2026-04-22 15:16 | 60.37207 | 4.98954 | 13466 ft | 397 kts | 175° |
| 2026-04-22 15:16 | 60.34424 | 4.99584 | 13903 ft | 407 kts | 175° |
| 2026-04-22 15:16 | 60.31581 | 5.00193 | 14427 ft | 413 kts | 175° |
| 2026-04-22 15:17 | 60.28744 | 5.00782 | 15274 ft | 409 kts | 174° |
| 2026-04-22 15:17 | 60.25906 | 5.01484 | 15832 ft | 414 kts | 170° |
| 2026-04-22 15:17 | 60.23063 | 5.02646 | 16404 ft | 417 kts | 167° |
| 2026-04-22 15:17 | 60.20211 | 5.03889 | 16968 ft | 421 kts | 167° |
| 2026-04-22 15:18 | 60.17343 | 5.05076 | 17580 ft | 422 kts | 168° |
| 2026-04-22 15:18 | 60.14485 | 5.06496 | 18200 ft | 423 kts | 160° |
| 2026-04-22 15:18 | 60.11747 | 5.08677 | 18810 ft | 423 kts | 155° |
| 2026-04-22 15:18 | 60.09075 | 5.11133 | 19318 ft | 424 kts | 153° |
| 2026-04-22 15:19 | 60.06396 | 5.13641 | 19825 ft | 427 kts | 154° |
| 2026-04-22 15:19 | 60.03671 | 5.16133 | 20229 ft | 431 kts | 154° |
| 2026-04-22 15:19 | 60.00952 | 5.18543 | 20689 ft | 434 kts | 155° |
| 2026-04-22 15:19 | 59.98171 | 5.20953 | 21132 ft | 437 kts | 155° |
| 2026-04-22 15:20 | 59.95368 | 5.23347 | 21611 ft | 438 kts | 155° |
| 2026-04-22 15:20 | 59.92554 | 5.25735 | 22044 ft | 441 kts | 155° |
| 2026-04-22 15:20 | 59.89732 | 5.28122 | 22558 ft | 441 kts | 154° |
| 2026-04-22 15:20 | 59.86893 | 5.30528 | 22811 ft | 447 kts | 155° |
| 2026-04-22 15:21 | 59.84010 | 5.32967 | 23127 ft | 452 kts | 155° |
| 2026-04-22 15:21 | 59.81105 | 5.35409 | 23543 ft | 454 kts | 155° |
| 2026-04-22 15:21 | 59.78054 | 5.37141 | 23906 ft | 461 kts | 171° |
| 2026-04-22 15:21 | 59.74841 | 5.37425 | 24311 ft | 463 kts | 176° |
| 2026-04-22 15:22 | 59.71656 | 5.37664 | 24665 ft | 463 kts | 173° |
| 2026-04-22 15:22 | 59.68399 | 5.38165 | 25002 ft | 464 kts | 172° |
| 2026-04-22 15:22 | 59.65185 | 5.38720 | 25320 ft | 466 kts | 172° |
| 2026-04-22 15:22 | 59.61996 | 5.39371 | 25626 ft | 466 kts | 170° |
| 2026-04-22 15:23 | 59.58767 | 5.40199 | 25933 ft | 468 kts | 169° |
| 2026-04-22 15:23 | 59.55539 | 5.41079 | 26245 ft | 469 kts | 169° |
| 2026-04-22 15:23 | 59.52294 | 5.41954 | 26543 ft | 471 kts | 169° |
| 2026-04-22 15:23 | 59.49046 | 5.42802 | 26836 ft | 472 kts | 169° |
| 2026-04-22 15:24 | 59.45786 | 5.43628 | 27258 ft | 470 kts | 169° |
| 2026-04-22 15:24 | 59.42565 | 5.44433 | 27789 ft | 465 kts | 169° |
| 2026-04-22 15:24 | 59.39366 | 5.45248 | 28305 ft | 461 kts | 168° |
| 2026-04-22 15:24 | 59.36212 | 5.46264 | 28742 ft | 458 kts | 166° |
| 2026-04-22 15:25 | 59.33083 | 5.47427 | 29147 ft | 457 kts | 165° |
| 2026-04-22 15:25 | 59.29974 | 5.48628 | 29574 ft | 455 kts | 165° |
| 2026-04-22 15:25 | 59.26907 | 5.49805 | 30030 ft | 453 kts | 165° |
| 2026-04-22 15:25 | 59.23784 | 5.50980 | 30499 ft | 450 kts | 165° |
| 2026-04-22 15:26 | 59.20751 | 5.52096 | 30864 ft | 449 kts | 165° |
| 2026-04-22 15:26 | 59.17687 | 5.53209 | 31285 ft | 445 kts | 165° |
| 2026-04-22 15:26 | 59.14652 | 5.54301 | 31778 ft | 440 kts | 164° |
| 2026-04-22 15:26 | 59.11650 | 5.55377 | 32149 ft | 438 kts | 164° |
| 2026-04-22 15:27 | 59.08654 | 5.56454 | 32423 ft | 438 kts | 164° |
| 2026-04-22 15:27 | 59.05653 | 5.57531 | 32701 ft | 438 kts | 164° |
| 2026-04-22 15:27 | 59.02658 | 5.58603 | 33046 ft | 437 kts | 164° |
| 2026-04-22 15:27 | 58.99678 | 5.59667 | 33408 ft | 434 kts | 164° |
| 2026-04-22 15:28 | 58.96708 | 5.60726 | 33738 ft | 433 kts | 164° |
| 2026-04-22 15:28 | 58.93748 | 5.61780 | 34051 ft | 432 kts | 163° |
| 2026-04-22 15:28 | 58.90814 | 5.62955 | 34373 ft | 427 kts | 158° |
| 2026-04-22 15:28 | 58.88089 | 5.65037 | 34656 ft | 417 kts | 147° |
| 2026-04-22 15:29 | 58.85607 | 5.67879 | 34893 ft | 413 kts | 141° |
| 2026-04-22 15:29 | 58.83382 | 5.71345 | 34984 ft | 410 kts | 132° |
| 2026-04-22 15:29 | 58.81347 | 5.75204 | 35156 ft | 411 kts | 132° |
| 2026-04-22 15:30 | 58.77214 | 5.82848 | 35373 ft | 414 kts | 133° |
| 2026-04-22 15:30 | 58.73066 | 5.90421 | 35380 ft | 412 kts | 133° |
| 2026-04-22 15:31 | 58.68911 | 5.97966 | 35390 ft | 412 kts | 133° |
| 2026-04-22 15:31 | 58.64703 | 6.05586 | 35381 ft | 418 kts | 133° |
| 2026-04-22 15:32 | 58.60447 | 6.13270 | 35375 ft | 422 kts | 133° |
| 2026-04-22 15:32 | 58.56149 | 6.20997 | 35372 ft | 423 kts | 133° |
| 2026-04-22 15:33 | 58.51852 | 6.28696 | 35326 ft | 424 kts | 133° |
| 2026-04-22 15:33 | 58.47534 | 6.36408 | 35339 ft | 426 kts | 133° |
| 2026-04-22 15:34 | 58.43191 | 6.44136 | 35343 ft | 426 kts | 133° |
| 2026-04-22 15:34 | 58.38874 | 6.51789 | 35314 ft | 425 kts | 133° |
| 2026-04-22 15:35 | 58.35268 | 6.58164 | 35308 ft | 425 kts | 133° |
| 2026-04-22 15:35 | 58.30191 | 6.67106 | 35348 ft | 425 kts | 133° |
| 2026-04-22 15:36 | 58.25850 | 6.74722 | 35306 ft | 422 kts | 133° |
| 2026-04-22 15:36 | 58.21532 | 6.82271 | 35293 ft | 422 kts | 133° |
| 2026-04-22 15:37 | 58.17205 | 6.89812 | 35299 ft | 422 kts | 133° |
| 2026-04-22 15:37 | 58.12894 | 6.97302 | 35283 ft | 424 kts | 133° |
| 2026-04-22 15:38 | 58.08530 | 7.04856 | 35283 ft | 425 kts | 134° |
| 2026-04-22 15:38 | 58.01992 | 7.16120 | 35278 ft | 426 kts | 134° |
| 2026-04-22 15:39 | 57.97577 | 7.23695 | 35287 ft | 425 kts | 133° |
| 2026-04-22 15:39 | 57.93213 | 7.31153 | 35271 ft | 423 kts | 134° |
| 2026-04-22 15:40 | 57.88872 | 7.38551 | 35263 ft | 425 kts | 133° |
| 2026-04-22 15:40 | 57.84479 | 7.46013 | 35278 ft | 426 kts | 133° |
| 2026-04-22 15:41 | 57.80074 | 7.53469 | 35291 ft | 427 kts | 133° |
| 2026-04-22 15:41 | 57.75652 | 7.60926 | 35268 ft | 428 kts | 134° |
| 2026-04-22 15:42 | 57.71214 | 7.68384 | 35270 ft | 429 kts | 134° |
| 2026-04-22 15:42 | 57.66775 | 7.75816 | 35282 ft | 426 kts | 134° |
| 2026-04-22 15:43 | 57.62372 | 7.83163 | 35282 ft | 423 kts | 134° |
| 2026-04-22 15:43 | 57.57969 | 7.90490 | 35277 ft | 425 kts | 133° |
| 2026-04-22 15:44 | 57.53567 | 7.97792 | 35286 ft | 426 kts | 134° |
| 2026-04-22 15:44 | 57.49122 | 8.05137 | 35280 ft | 428 kts | 134° |
| 2026-04-22 15:45 | 57.44664 | 8.12477 | 35282 ft | 429 kts | 134° |
| 2026-04-22 15:45 | 57.40196 | 8.19809 | 35291 ft | 429 kts | 134° |
| 2026-04-22 15:46 | 57.35718 | 8.27133 | 35298 ft | 427 kts | 134° |
| 2026-04-22 15:46 | 57.31283 | 8.34358 | 35300 ft | 424 kts | 134° |
| 2026-04-22 15:47 | 57.26843 | 8.41574 | 35295 ft | 426 kts | 134° |
| 2026-04-22 15:47 | 57.22383 | 8.48798 | 35302 ft | 427 kts | 134° |
| 2026-04-22 15:48 | 57.17908 | 8.56020 | 35310 ft | 428 kts | 134° |
| 2026-04-22 15:48 | 57.13443 | 8.63202 | 35309 ft | 429 kts | 134° |
| 2026-04-22 15:49 | 57.08946 | 8.70411 | 35311 ft | 429 kts | 134° |
| 2026-04-22 15:49 | 57.04447 | 8.77597 | 35314 ft | 426 kts | 134° |
| 2026-04-22 15:50 | 56.99979 | 8.84707 | 35313 ft | 424 kts | 134° |
| 2026-04-22 15:50 | 56.95512 | 8.91801 | 35318 ft | 426 kts | 134° |
| 2026-04-22 15:51 | 56.91025 | 8.98902 | 35318 ft | 427 kts | 134° |
| 2026-04-22 15:51 | 56.86519 | 9.06006 | 35315 ft | 428 kts | 134° |
| 2026-04-22 15:52 | 56.82004 | 9.13102 | 35321 ft | 428 kts | 134° |
| 2026-04-22 15:52 | 56.77484 | 9.20181 | 35315 ft | 428 kts | 134° |
| 2026-04-22 15:53 | 56.72970 | 9.27226 | 35312 ft | 426 kts | 134° |
| 2026-04-22 15:53 | 56.68477 | 9.34215 | 35327 ft | 424 kts | 134° |
| 2026-04-22 15:54 | 56.63977 | 9.41198 | 35316 ft | 426 kts | 134° |
| 2026-04-22 15:54 | 56.59465 | 9.48175 | 35314 ft | 427 kts | 134° |
| 2026-04-22 15:55 | 56.54941 | 9.55147 | 35304 ft | 427 kts | 134° |
| 2026-04-22 15:55 | 56.50407 | 9.62110 | 35306 ft | 428 kts | 134° |
| 2026-04-22 15:56 | 56.45884 | 9.69036 | 35330 ft | 428 kts | 134° |
| 2026-04-22 15:56 | 56.41362 | 9.75932 | 35301 ft | 423 kts | 134° |
| 2026-04-22 15:57 | 56.36857 | 9.82785 | 35316 ft | 423 kts | 134° |
| 2026-04-22 15:57 | 56.32340 | 9.89638 | 35308 ft | 424 kts | 134° |
| 2026-04-22 15:58 | 56.27865 | 9.96395 | 35282 ft | 416 kts | 134° |
| 2026-04-22 15:58 | 56.23443 | 10.03058 | 35293 ft | 413 kts | 134° |
| 2026-04-22 15:59 | 56.21230 | 10.06388 | 34949 ft | 418 kts | 134° |
| 2026-04-22 15:59 | 56.19003 | 10.09736 | 34399 ft | 416 kts | 134° |
| 2026-04-22 15:59 | 56.17529 | 10.11945 | 33935 ft | 415 kts | 134° |
| 2026-04-22 15:59 | 56.15316 | 10.15257 | 33261 ft | 414 kts | 134° |
| 2026-04-22 16:00 | 56.13103 | 10.18565 | 32536 ft | 414 kts | 134° |
| 2026-04-22 16:00 | 56.10176 | 10.22934 | 31583 ft | 414 kts | 134° |
| 2026-04-22 16:00 | 56.07958 | 10.26239 | 30847 ft | 415 kts | 134° |
| 2026-04-22 16:00 | 56.05736 | 10.29545 | 30048 ft | 417 kts | 135° |
| 2026-04-22 16:01 | 56.04251 | 10.31752 | 29445 ft | 418 kts | 135° |
| 2026-04-22 16:01 | 56.02014 | 10.35070 | 28593 ft | 419 kts | 135° |
| 2026-04-22 16:01 | 55.99739 | 10.38440 | 27714 ft | 421 kts | 135° |
| 2026-04-22 16:01 | 55.97511 | 10.41735 | 26999 ft | 419 kts | 135° |
| 2026-04-22 16:02 | 55.95271 | 10.45041 | 26389 ft | 418 kts | 135° |
| 2026-04-22 16:02 | 55.93001 | 10.48393 | 25787 ft | 432 kts | 136° |
| 2026-04-22 16:02 | 55.90794 | 10.52098 | 25105 ft | 435 kts | 124° |
| 2026-04-22 16:02 | 55.89360 | 10.56728 | 24266 ft | 425 kts | 106° |
| 2026-04-22 16:03 | 55.88670 | 10.61811 | 23482 ft | 420 kts | 98° |
| 2026-04-22 16:03 | 55.88101 | 10.66917 | 22712 ft | 417 kts | 99° |
| 2026-04-22 16:03 | 55.87517 | 10.71926 | 22078 ft | 411 kts | 99° |
| 2026-04-22 16:03 | 55.86930 | 10.76872 | 21447 ft | 406 kts | 99° |
| 2026-04-22 16:04 | 55.86340 | 10.81768 | 20849 ft | 401 kts | 100° |
| 2026-04-22 16:04 | 55.85753 | 10.86594 | 20245 ft | 397 kts | 100° |
| 2026-04-22 16:04 | 55.85174 | 10.91323 | 19662 ft | 394 kts | 100° |
| 2026-04-22 16:04 | 55.84575 | 10.96066 | 19022 ft | 393 kts | 101° |
| 2026-04-22 16:05 | 55.83899 | 11.00776 | 18375 ft | 392 kts | 103° |
| 2026-04-22 16:05 | 55.83191 | 11.05449 | 17717 ft | 390 kts | 103° |
| 2026-04-22 16:05 | 55.82485 | 11.10077 | 17139 ft | 386 kts | 103° |
| 2026-04-22 16:05 | 55.81799 | 11.14600 | 17037 ft | 371 kts | 102° |
| 2026-04-22 16:06 | 55.81143 | 11.18958 | 16850 ft | 359 kts | 102° |
| 2026-04-22 16:06 | 55.80511 | 11.23186 | 16696 ft | 348 kts | 102° |
| 2026-04-22 16:06 | 55.79902 | 11.27271 | 16552 ft | 337 kts | 102° |
| 2026-04-22 16:06 | 55.79311 | 11.31237 | 16421 ft | 327 kts | 102° |
| 2026-04-22 16:07 | 55.78736 | 11.35082 | 16279 ft | 318 kts | 102° |
| 2026-04-22 16:07 | 55.78173 | 11.38825 | 16151 ft | 309 kts | 102° |
| 2026-04-22 16:07 | 55.77625 | 11.42463 | 16025 ft | 300 kts | 102° |
| 2026-04-22 16:07 | 55.77227 | 11.46054 | 15750 ft | 294 kts | 90° |
| 2026-04-22 16:08 | 55.77198 | 11.49664 | 15470 ft | 291 kts | 87° |
| 2026-04-22 16:08 | 55.77181 | 11.53260 | 15163 ft | 290 kts | 88° |
| 2026-04-22 16:08 | 55.77139 | 11.56829 | 14870 ft | 288 kts | 88° |
| 2026-04-22 16:08 | 55.77083 | 11.60378 | 14569 ft | 288 kts | 88° |
| 2026-04-22 16:09 | 55.77020 | 11.63883 | 14283 ft | 287 kts | 88° |
| 2026-04-22 16:09 | 55.76949 | 11.67413 | 13978 ft | 287 kts | 88° |
| 2026-04-22 16:09 | 55.76877 | 11.70957 | 13639 ft | 286 kts | 88° |
| 2026-04-22 16:09 | 55.76803 | 11.74479 | 13328 ft | 285 kts | 88° |
| 2026-04-22 16:10 | 55.76916 | 11.77952 | 13084 ft | 279 kts | 75° |
| 2026-04-22 16:10 | 55.77364 | 11.81313 | 12900 ft | 282 kts | 72° |
| 2026-04-22 16:10 | 55.77830 | 11.84750 | 12696 ft | 290 kts | 73° |
| 2026-04-22 16:10 | 55.78288 | 11.88265 | 12479 ft | 294 kts | 73° |
| 2026-04-22 16:11 | 55.78738 | 11.91820 | 12244 ft | 295 kts | 74° |
| 2026-04-22 16:11 | 55.79180 | 11.95375 | 12017 ft | 295 kts | 74° |
| 2026-04-22 16:11 | 55.79616 | 11.98930 | 11793 ft | 295 kts | 74° |
| 2026-04-22 16:11 | 55.80051 | 12.02495 | 11564 ft | 293 kts | 74° |
| 2026-04-22 16:12 | 55.80477 | 12.06021 | 11343 ft | 290 kts | 74° |
| 2026-04-22 16:12 | 55.80895 | 12.09492 | 11124 ft | 286 kts | 74° |
| 2026-04-22 16:12 | 55.81309 | 12.12937 | 10917 ft | 283 kts | 73° |
| 2026-04-22 16:12 | 55.81716 | 12.16320 | 10711 ft | 283 kts | 73° |
| 2026-04-22 16:13 | 55.82125 | 12.19736 | 10496 ft | 280 kts | 73° |
| 2026-04-22 16:13 | 55.82528 | 12.23113 | 10281 ft | 276 kts | 73° |
| 2026-04-22 16:13 | 55.82922 | 12.26432 | 10052 ft | 272 kts | 73° |
| 2026-04-22 16:13 | 55.83310 | 12.29702 | 9839 ft | 268 kts | 73° |
| 2026-04-22 16:14 | 55.83681 | 12.32948 | 9633 ft | 268 kts | 77° |
| 2026-04-22 16:14 | 55.83514 | 12.36280 | 9388 ft | 280 kts | 110° |
| 2026-04-22 16:14 | 55.82470 | 12.39217 | 9277 ft | 284 kts | 121° |
| 2026-04-22 16:14 | 55.81360 | 12.42156 | 9027 ft | 287 kts | 119° |
| 2026-04-22 16:15 | 55.80262 | 12.45152 | 8807 ft | 290 kts | 119° |
| 2026-04-22 16:15 | 55.79178 | 12.48111 | 8583 ft | 290 kts | 119° |
| 2026-04-22 16:15 | 55.78079 | 12.51110 | 8350 ft | 288 kts | 119° |
| 2026-04-22 16:15 | 55.76979 | 12.54110 | 8127 ft | 284 kts | 119° |
| 2026-04-22 16:16 | 55.75919 | 12.56995 | 7919 ft | 282 kts | 119° |
| 2026-04-22 16:16 | 55.74850 | 12.59904 | 7717 ft | 280 kts | 119° |
| 2026-04-22 16:16 | 55.73786 | 12.62800 | 7500 ft | 279 kts | 119° |
| 2026-04-22 16:16 | 55.72727 | 12.65681 | 7295 ft | 278 kts | 119° |
| 2026-04-22 16:17 | 55.71673 | 12.68543 | 7090 ft | 277 kts | 120° |
| 2026-04-22 16:17 | 55.70616 | 12.71408 | 6881 ft | 277 kts | 120° |
| 2026-04-22 16:17 | 55.69563 | 12.74255 | 6678 ft | 276 kts | 120° |
| 2026-04-22 16:17 | 55.68506 | 12.77115 | 6460 ft | 276 kts | 120° |
| 2026-04-22 16:18 | 55.67453 | 12.79963 | 6245 ft | 276 kts | 120° |
| 2026-04-22 16:18 | 55.66401 | 12.82808 | 6037 ft | 276 kts | 120° |
| 2026-04-22 16:18 | 55.65349 | 12.85651 | 5829 ft | 276 kts | 120° |
| 2026-04-22 16:18 | 55.64293 | 12.88496 | 5621 ft | 276 kts | 120° |
| 2026-04-22 16:19 | 55.63252 | 12.91299 | 5413 ft | 276 kts | 120° |
| 2026-04-22 16:19 | 55.62182 | 12.94127 | 5116 ft | 280 kts | 121° |
| 2026-04-22 16:19 | 55.61077 | 12.96995 | 4790 ft | 281 kts | 121° |
| 2026-04-22 16:19 | 55.59980 | 12.99831 | 4550 ft | 278 kts | 121° |
| 2026-04-22 16:20 | 55.58893 | 13.02643 | 4325 ft | 275 kts | 121° |
| 2026-04-22 16:20 | 55.57816 | 13.05426 | 4112 ft | 272 kts | 121° |
| 2026-04-22 16:20 | 55.56778 | 13.08127 | 4059 ft | 258 kts | 120° |
| 2026-04-22 16:20 | 55.55844 | 13.10750 | 3925 ft | 245 kts | 117° |
| 2026-04-22 16:21 | 55.54986 | 13.13264 | 3814 ft | 233 kts | 117° |
| 2026-04-22 16:21 | 55.54180 | 13.15660 | 3700 ft | 222 kts | 116° |
| 2026-04-22 16:21 | 55.53254 | 13.17754 | 3603 ft | 216 kts | 143° |
| 2026-04-22 16:21 | 55.51841 | 13.18424 | 3616 ft | 215 kts | 193° |
| 2026-04-22 16:22 | 55.49681 | 13.15271 | 3613 ft | 206 kts | 243° |
| 2026-04-22 16:22 | 55.48975 | 13.13098 | 3534 ft | 202 kts | 253° |
| 2026-04-22 16:22 | 55.48517 | 13.10800 | 3486 ft | 195 kts | 265° |
| 2026-04-22 16:23 | 55.48477 | 13.06290 | 3384 ft | 181 kts | 286° |
| 2026-04-22 16:23 | 55.48759 | 13.04136 | 3340 ft | 179 kts | 293° |
| 2026-04-22 16:23 | 55.49146 | 13.02063 | 3303 ft | 178 kts | 295° |
| 2026-04-22 16:24 | 55.49599 | 13.00044 | 3266 ft | 176 kts | 300° |
| 2026-04-22 16:24 | 55.50668 | 12.96161 | 3175 ft | 177 kts | 303° |
| 2026-04-22 16:24 | 55.51283 | 12.94275 | 3053 ft | 177 kts | 306° |
| 2026-04-22 16:25 | 55.51923 | 12.92458 | 3004 ft | 171 kts | 307° |
| 2026-04-22 16:25 | 55.53191 | 12.88979 | 2928 ft | 172 kts | 306° |
| 2026-04-22 16:25 | 55.53852 | 12.87176 | 2727 ft | 175 kts | 306° |
| 2026-04-22 16:26 | 55.54503 | 12.85400 | 2499 ft | 169 kts | 306° |
| 2026-04-22 16:26 | 55.55132 | 12.83686 | 2278 ft | 163 kts | 305° |
| 2026-04-22 16:26 | 55.55728 | 12.82060 | 2062 ft | 151 kts | 306° |
| 2026-04-22 16:26 | 55.56275 | 12.80572 | 1844 ft | 139 kts | 306° |
| 2026-04-22 16:27 | 55.56808 | 12.79125 | 1681 ft | 143 kts | 306° |
| 2026-04-22 16:27 | 55.57357 | 12.77634 | 1476 ft | 146 kts | 306° |
| 2026-04-22 16:27 | 55.57914 | 12.76119 | 1276 ft | 147 kts | 306° |
| 2026-04-22 16:27 | 55.58451 | 12.74659 | 1106 ft | 137 kts | 306° |
| 2026-04-22 16:28 | 55.58957 | 12.73284 | 903 ft | 128 kts | 306° |
| 2026-04-22 16:28 | 55.59448 | 12.71952 | 734 ft | 131 kts | 303° |
| 2026-04-22 16:28 | 55.59953 | 12.70581 | 564 ft | 135 kts | 303° |
| 2026-04-22 16:28 | 55.60469 | 12.69182 | 387 ft | 137 kts | 306° |
| 2026-04-22 16:29 | 55.60990 | 12.67768 | 212 ft | 137 kts | 304° |
| 2026-04-22 16:29 | 55.61515 | 12.66347 | 34 ft | 137 kts | 304° |
| 2026-04-22 16:29 | 55.61974 | 12.65115 | 18 ft | 93 kts | 304° |
| 2026-04-22 16:29 | 55.62156 | 12.64616 | 21 ft | 26 kts | 303° |
| 2026-04-22 16:30 | 55.62227 | 12.64441 | 17 ft | 26 kts | 323° |
| 2026-04-22 16:30 | 55.62410 | 12.64458 | 18 ft | 17 kts | 13° |
| 2026-04-22 16:30 | 55.62469 | 12.64508 | 21 ft | 6 kts | 60° |
| 2026-04-22 16:30 | 55.62470 | 12.64532 | 20 ft | 0 kts | 94° |
| 2026-04-22 16:31 | 55.62465 | 12.64559 | 21 ft | 5 kts | 111° |
| 2026-04-22 16:31 | 55.62472 | 12.64638 | 21 ft | 9 kts | 38° |
| 2026-04-22 16:31 | 55.62545 | 12.64650 | 19 ft | 12 kts | 359° |
| 2026-04-22 16:31 | 55.62625 | 12.64658 | 19 ft | 11 kts | 10° |
| 2026-04-22 16:32 | 55.62673 | 12.64670 | 19 ft | 6 kts | 354° |
| 2026-04-22 16:32 | 55.62694 | 12.64614 | 19 ft | 6 kts | 281° |
| 2026-04-22 16:32 | 55.62698 | 12.64580 | 20 ft | 2 kts | 282° |
| 2026-04-22 16:32 | 55.62698 | 12.64577 | 20 ft | 0 kts | 282° |
| 2026-04-22 16:38 | 55.62698 | 12.64578 | 20 ft | 0 kts | 282° |